Alexander, North Carolina
Current Conditions -  °F | °C
As of 3:54 AM on Thursday 23 Oct 2014 (Local Time) from KAVL Reporting Station
Clear Clear  
Wind Chill: 37°   Ceiling: Unl
Heat Index: 44°   Visibility: 10mi
Dew Point: 35°   Wind: 16mph
Humidity: 71%   Direction: 320°NW
Pressure: 30.13"   Gusts: NA
Location:  35.69°N, 82.66°W
Report Text: KAVL 230754Z AUTO 32014KT 10SM CLR 07/02 A3013 RMK AO2 SLP197 T00670017
Loading
Personal Weather Stations






























Interactive Weather Map
Tropical Storm Tracking
New forecast layout! Learn more

10-Day Weather Forecast

Advertisements
Track Severe Weather on mobile